createdAt,value
2018-08-20T00:01:36.248Z,15.65
2018-08-20T00:04:06.618Z,18.82
2018-08-20T00:06:49.477Z,14.78
2018-08-20T00:09:18.732Z,20.43
2018-08-20T00:11:47.912Z,16.10
2018-08-20T00:14:17.575Z,20.27
2018-08-20T00:16:46.151Z,22.93
2018-08-20T00:19:15.944Z,15.85
2018-08-20T00:21:45.210Z,18.07
2018-08-20T00:24:14.372Z,17.02
2018-08-20T00:26:42.921Z,21.10
2018-08-20T00:29:11.798Z,23.42
2018-08-20T00:31:40.315Z,20.25
2018-08-20T00:34:09.008Z,16.27
2018-08-20T00:36:38.672Z,11.03
2018-08-20T00:39:08.398Z,20.15
2018-08-20T00:41:37.114Z,18.48
2018-08-20T00:44:10.282Z,19.07
2018-08-20T00:46:38.642Z,15.25
2018-08-20T00:49:07.273Z,14.53
2018-08-20T00:51:35.887Z,16.70
2018-08-20T00:54:04.758Z,16.67
2018-08-20T00:56:33.370Z,14.73
2018-08-20T00:59:02.978Z,13.53
2018-08-20T01:01:32.375Z,17.73
2018-08-20T01:04:02.512Z,18.98
2018-08-20T01:06:31.934Z,13.00
2018-08-20T01:09:01.266Z,16.77
2018-08-20T01:11:29.736Z,16.65
2018-08-20T01:13:58.757Z,15.58
2018-08-20T01:16:27.616Z,14.43
2018-08-20T01:18:56.262Z,16.37
2018-08-20T01:21:24.840Z,14.87
2018-08-20T01:25:18.101Z,13.48
2018-08-20T01:27:50.213Z,13.53
2018-08-20T01:30:18.633Z,14.68
2018-08-20T01:32:47.284Z,12.65
2018-08-20T01:38:09.686Z,12.82
2018-08-20T01:40:38.390Z,13.75
2018-08-20T01:43:08.242Z,9.98
2018-08-20T01:45:36.982Z,12.18
2018-08-20T01:48:05.763Z,13.25
2018-08-20T01:50:34.650Z,10.58
2018-08-20T01:53:03.192Z,10.50
2018-08-20T01:55:32.839Z,11.20
2018-08-20T01:58:01.488Z,9.35
2018-08-20T02:00:30.096Z,9.28
2018-08-20T02:03:03.098Z,11.30
2018-08-20T02:05:31.844Z,12.75
2018-08-20T02:08:00.410Z,10.58
2018-08-20T02:10:29.255Z,6.05
2018-08-20T02:12:58.197Z,5.28
2018-08-20T02:15:27.438Z,8.10
2018-08-20T02:17:55.996Z,13.95
2018-08-20T02:20:25.493Z,9.33
2018-08-20T02:22:54.411Z,7.17
2018-08-20T02:25:23.097Z,8.43
2018-08-20T02:27:51.656Z,7.95
2018-08-20T02:30:20.217Z,9.68
2018-08-20T02:32:48.946Z,10.70
2018-08-20T02:35:17.712Z,6.17
2018-08-20T02:37:47.321Z,8.90
2018-08-20T02:40:17.192Z,5.15
2018-08-20T02:42:46.003Z,7.10
2018-08-20T02:45:17.305Z,9.30
2018-08-20T02:47:46.795Z,6.78
2018-08-20T02:50:15.894Z,7.00
2018-08-20T02:52:45.892Z,6.10
2018-08-20T02:55:14.402Z,6.90
2018-08-20T02:57:43.091Z,4.45
2018-08-20T03:00:13.440Z,4.33
2018-08-20T03:02:42.773Z,7.72
2018-08-20T03:05:15.050Z,6.17
2018-08-20T03:07:44.432Z,6.47
2018-08-20T03:10:13.388Z,7.87
2018-08-20T03:12:43.007Z,4.75
2018-08-20T03:15:13.259Z,7.90
2018-08-20T03:17:42.617Z,7.08
2018-08-20T03:20:11.263Z,8.00
2018-08-20T03:22:39.837Z,6.95
2018-08-20T03:25:09.557Z,4.25
2018-08-20T03:27:38.315Z,5.08
2018-08-20T03:30:08.398Z,7.08
2018-08-20T03:32:37.876Z,5.65
2018-08-20T03:35:07.838Z,6.17
2018-08-20T03:37:36.228Z,9.15
2018-08-20T03:40:06.062Z,11.28
2018-08-20T03:42:35.089Z,4.75
2018-08-20T03:45:05.373Z,13.08
2018-08-20T03:47:34.053Z,6.62
2018-08-20T03:50:02.824Z,9.30
2018-08-20T03:52:31.884Z,9.53
2018-08-20T03:55:00.168Z,12.75
2018-08-20T03:57:31.391Z,9.65
2018-08-20T03:59:59.850Z,10.32
2018-08-20T04:02:28.610Z,11.43
2018-08-20T04:04:57.388Z,10.30
2018-08-20T04:07:26.059Z,8.25
2018-08-20T04:09:54.764Z,12.25
2018-08-20T04:12:23.474Z,10.48
2018-08-20T04:14:52.129Z,6.08
2018-08-20T04:17:20.790Z,6.12
2018-08-20T04:19:50.964Z,9.48
2018-08-20T04:22:20.130Z,5.92
2018-08-20T04:24:49.904Z,8.93
2018-08-20T04:27:19.929Z,6.97
2018-08-20T04:29:48.222Z,11.33
2018-08-20T04:32:17.962Z,7.08
2018-08-20T04:34:46.549Z,9.48
2018-08-20T04:37:15.147Z,6.03
2018-08-20T04:39:43.707Z,5.28
2018-08-20T04:42:13.494Z,6.08
2018-08-20T04:44:42.043Z,6.37
2018-08-20T04:47:10.628Z,5.97
2018-08-20T04:49:40.398Z,6.20
2018-08-20T04:52:09.097Z,5.47
2018-08-20T04:54:37.948Z,5.78
2018-08-20T04:57:06.554Z,4.35
2018-08-20T04:59:35.042Z,3.60
2018-08-20T05:02:03.679Z,3.05
2018-08-20T05:04:33.742Z,4.67
2018-08-20T05:07:02.219Z,3.58
2018-08-20T05:09:30.864Z,3.00
2018-08-20T05:11:59.648Z,4.75
2018-08-20T05:14:28.591Z,3.80
2018-08-20T05:16:57.137Z,3.02
2018-08-20T05:19:25.827Z,2.75
2018-08-20T05:21:54.451Z,3.72
2018-08-20T05:24:23.270Z,2.70
2018-08-20T05:26:52.193Z,5.17
2018-08-20T05:29:20.966Z,3.85
2018-08-20T05:31:49.382Z,7.47
2018-08-20T05:34:18.001Z,3.83
2018-08-20T05:36:46.773Z,7.87
2018-08-20T05:39:15.792Z,5.53
2018-08-20T05:41:44.962Z,2.77
2018-08-20T05:44:13.560Z,3.42
2018-08-20T05:46:42.112Z,5.97
2018-08-20T05:49:10.791Z,2.65
2018-08-20T05:51:39.451Z,4.05
2018-08-20T05:54:08.093Z,2.77
2018-08-20T05:56:36.797Z,2.30
2018-08-20T05:59:05.576Z,2.20
2018-08-20T06:01:34.177Z,2.80
2018-08-20T06:04:02.964Z,1.95
2018-08-20T06:06:32.849Z,1.60
2018-08-20T06:09:01.540Z,1.75
2018-08-20T06:11:31.437Z,2.22
2018-08-20T06:13:59.918Z,2.62
2018-08-20T06:16:28.489Z,3.27
2018-08-20T06:18:57.124Z,1.72
2018-08-20T06:21:26.147Z,2.10
2018-08-20T06:23:54.637Z,1.82
2018-08-20T06:26:23.316Z,2.15
2018-08-20T06:28:52.057Z,2.15
2018-08-20T06:31:20.725Z,2.00
2018-08-20T06:33:49.701Z,3.90
2018-08-20T06:36:18.265Z,1.70
2018-08-20T06:38:46.945Z,2.47
2018-08-20T06:41:15.597Z,2.00
2018-08-20T06:43:44.587Z,1.98
2018-08-20T06:46:13.864Z,2.08
2018-08-20T06:48:42.694Z,2.58
2018-08-20T06:51:11.231Z,2.20
2018-08-20T06:53:40.052Z,4.70
2018-08-20T06:56:08.618Z,3.42
2018-08-20T06:58:37.263Z,2.20
2018-08-20T07:01:05.928Z,1.75
2018-08-20T07:03:34.662Z,0.95
2018-08-20T07:06:03.515Z,0.80
2018-08-20T07:08:32.017Z,0.88
2018-08-20T07:11:01.407Z,0.98
2018-08-20T07:13:33.072Z,1.00
2018-08-20T07:16:01.507Z,2.67
2018-08-20T07:18:30.290Z,1.35
2018-08-20T07:20:59.403Z,1.10
2018-08-20T07:23:28.482Z,1.92
2018-08-20T07:25:56.703Z,1.22
2018-08-20T07:28:25.299Z,0.98
2018-08-20T07:30:53.961Z,3.30
2018-08-20T07:33:22.568Z,1.20
2018-08-20T07:35:52.084Z,0.62
2018-08-20T07:38:21.250Z,1.80
2018-08-20T07:40:49.847Z,0.70
2018-08-20T07:43:18.444Z,0.82
2018-08-20T07:45:47.340Z,0.70
2018-08-20T07:48:16.142Z,1.00
2018-08-20T07:50:44.700Z,1.00
2018-08-20T07:53:13.922Z,1.12
2018-08-20T07:55:44.423Z,1.17
2018-08-20T07:58:12.803Z,1.37
2018-08-20T08:00:41.329Z,0.90
2018-08-20T08:03:11.228Z,1.22
2018-08-20T08:05:39.924Z,0.90
2018-08-20T08:08:08.464Z,2.30
2018-08-20T08:10:37.156Z,0.90
2018-08-20T08:13:06.395Z,1.30
2018-08-20T08:15:34.848Z,2.75
2018-08-20T08:18:06.009Z,2.33
2018-08-20T08:20:35.566Z,1.17
2018-08-20T08:23:04.221Z,0.75
2018-08-20T08:25:34.642Z,1.00
2018-08-20T08:28:03.626Z,1.05
2018-08-20T08:30:33.740Z,0.57
2018-08-20T08:33:01.987Z,1.00
2018-08-20T08:35:30.567Z,0.75
2018-08-20T08:37:59.444Z,0.65
2018-08-20T08:40:28.093Z,1.07
2018-08-20T08:42:57.348Z,0.90
2018-08-20T08:45:25.727Z,1.17
2018-08-20T08:47:54.704Z,1.85
2018-08-20T08:50:23.436Z,0.70
2018-08-20T08:52:51.932Z,1.02
2018-08-20T08:55:21.632Z,2.08
2018-08-20T08:57:50.276Z,1.45
2018-08-20T09:00:20.130Z,1.42
2018-08-20T09:02:48.701Z,0.85
2018-08-20T09:05:17.467Z,2.35
2018-08-20T09:07:47.333Z,1.57
2018-08-20T09:10:16.282Z,2.58
2018-08-20T09:12:44.707Z,2.25
2018-08-20T09:15:16.897Z,1.00
2018-08-20T09:17:45.801Z,1.92
2018-08-20T09:20:16.143Z,2.10
2018-08-20T09:22:44.830Z,1.37
2018-08-20T09:25:14.722Z,1.10
2018-08-20T09:27:45.634Z,1.90
2018-08-20T09:30:16.795Z,1.75
2018-08-20T09:32:46.956Z,1.07
2018-08-20T09:35:15.690Z,1.20
2018-08-20T09:37:44.303Z,2.70
2018-08-20T09:40:13.446Z,2.15
2018-08-20T09:42:43.121Z,1.35
2018-08-20T09:45:13.268Z,1.35
2018-08-20T09:47:42.350Z,4.53
2018-08-20T09:50:13.806Z,1.35
2018-08-20T09:52:43.248Z,1.27
2018-08-20T09:55:11.726Z,1.52
2018-08-20T09:57:41.571Z,1.05
2018-08-20T10:00:16.984Z,2.12
2018-08-20T10:02:45.846Z,2.27
2018-08-20T10:05:14.389Z,2.37
2018-08-20T10:07:43.253Z,1.15
2018-08-20T10:10:11.699Z,2.05
2018-08-20T10:12:40.657Z,1.92
2018-08-20T10:15:09.596Z,3.55
2018-08-20T10:17:38.126Z,2.08
2018-08-20T10:20:09.089Z,3.05
2018-08-20T10:22:37.736Z,2.50
2018-08-20T10:25:06.604Z,3.20
2018-08-20T10:27:36.333Z,2.62
2018-08-20T10:30:07.612Z,2.60
2018-08-20T10:32:35.979Z,3.22
2018-08-20T10:35:04.830Z,1.67
2018-08-20T10:37:33.476Z,1.50
2018-08-20T10:40:02.164Z,2.25
2018-08-20T10:42:30.786Z,0.98
2018-08-20T10:45:05.790Z,2.05
2018-08-20T10:47:34.894Z,1.20
2018-08-20T10:50:04.568Z,1.15
2018-08-20T10:52:34.105Z,1.30
2018-08-20T10:55:02.555Z,1.50
2018-08-20T10:57:31.112Z,1.17
2018-08-20T10:59:59.893Z,3.10
2018-08-20T11:02:28.465Z,1.80
2018-08-20T11:04:57.061Z,0.85
2018-08-20T11:07:25.719Z,1.15
2018-08-20T11:09:54.561Z,0.68
2018-08-20T11:12:23.565Z,0.50
2018-08-20T11:14:52.858Z,1.30
2018-08-20T11:17:21.606Z,0.75
2018-08-20T11:19:50.232Z,2.25
2018-08-20T11:22:19.894Z,0.72
2018-08-20T11:24:48.685Z,1.12
2018-08-20T11:27:18.450Z,3.08
2018-08-20T11:29:47.022Z,2.08
2018-08-20T11:32:19.536Z,0.82
2018-08-20T11:34:48.494Z,1.95
2018-08-20T11:37:18.356Z,1.25
2018-08-20T11:39:48.259Z,0.90
2018-08-20T11:42:16.864Z,0.90
2018-08-20T11:44:45.633Z,1.40
2018-08-20T11:47:15.447Z,1.12
2018-08-20T11:49:49.495Z,1.80
2018-08-20T11:52:25.348Z,1.17
2018-08-20T11:54:54.118Z,3.95
2018-08-20T11:57:28.887Z,1.77
2018-08-20T12:00:03.939Z,0.80
2018-08-20T12:02:38.550Z,1.45
2018-08-20T12:08:00.226Z,2.40
2018-08-20T12:10:30.270Z,0.85
2018-08-20T12:13:05.065Z,0.65
2018-08-20T12:15:46.566Z,0.72
2018-08-20T12:18:17.821Z,0.62
2018-08-20T12:20:46.592Z,0.70
2018-08-20T12:23:15.557Z,1.22
2018-08-20T12:25:58.226Z,0.55
2018-08-20T12:28:28.022Z,1.17
2018-08-20T12:30:57.809Z,1.25
2018-08-20T12:33:26.505Z,0.78
2018-08-20T12:35:56.182Z,0.40
2018-08-20T12:38:24.929Z,0.50
2018-08-20T12:40:54.578Z,0.53
2018-08-20T12:43:24.332Z,0.42
2018-08-20T12:45:53.320Z,0.55
2018-08-20T12:48:21.982Z,1.25
2018-08-20T12:50:50.722Z,2.25
2018-08-20T12:53:20.343Z,0.40
2018-08-20T12:55:49.259Z,1.07
2018-08-20T12:58:17.897Z,0.50
2018-08-20T13:00:46.755Z,0.72
2018-08-20T13:03:16.077Z,0.42
2018-08-20T13:05:45.006Z,0.60
2018-08-20T13:08:14.073Z,0.90
2018-08-20T13:10:42.601Z,0.88
2018-08-20T13:13:11.094Z,1.05
2018-08-20T13:15:39.787Z,0.60
2018-08-20T13:18:11.442Z,9.30
2018-08-20T13:20:43.209Z,2.45
2018-08-20T13:23:12.127Z,2.17
2018-08-20T13:25:40.683Z,0.60
2018-08-20T13:28:12.652Z,1.02
2018-08-20T13:30:46.503Z,1.40
2018-08-20T13:33:16.707Z,0.70
2018-08-20T13:35:49.088Z,0.60
2018-08-20T13:38:18.541Z,0.72
2018-08-20T13:40:47.826Z,3.15
2018-08-20T13:43:16.478Z,0.80
2018-08-20T13:45:48.119Z,0.40
2018-08-20T13:48:17.832Z,1.00
2018-08-20T13:50:47.278Z,0.35
2018-08-20T13:53:15.931Z,0.40
2018-08-20T13:55:46.261Z,0.50
2018-08-20T13:58:15.313Z,0.42
2018-08-20T14:00:44.377Z,0.35
2018-08-20T14:03:12.859Z,0.37
2018-08-20T14:05:41.749Z,0.50
2018-08-20T14:08:11.606Z,1.42
2018-08-20T14:10:41.336Z,1.47
2018-08-20T14:13:22.211Z,0.40
2018-08-20T14:15:50.722Z,1.05
2018-08-20T14:18:19.589Z,0.35
2018-08-20T14:21:10.773Z,1.12
2018-08-20T14:23:42.124Z,0.57
2018-08-20T14:26:16.973Z,0.40
2018-08-20T14:28:46.463Z,1.12
2018-08-20T14:31:16.057Z,0.57
2018-08-20T14:33:45.817Z,0.60
2018-08-20T14:36:14.458Z,1.62
2018-08-20T14:38:47.016Z,0.55
2018-08-20T14:41:16.234Z,0.45
2018-08-20T14:43:46.117Z,0.60
2018-08-20T14:46:22.393Z,0.40
2018-08-20T14:48:52.557Z,0.50
2018-08-20T14:51:21.427Z,0.30
2018-08-20T14:53:50.724Z,0.47
2018-08-20T14:56:19.803Z,1.52
2018-08-20T14:58:48.654Z,0.70
2018-08-20T15:01:17.740Z,0.95
2018-08-20T15:03:46.767Z,0.57
2018-08-20T15:06:15.271Z,0.30
2018-08-20T15:08:45.226Z,0.62
2018-08-20T15:11:14.298Z,0.62
2018-08-20T15:13:43.108Z,0.93
2018-08-20T15:16:17.672Z,1.17
2018-08-20T15:18:49.379Z,1.50
2018-08-20T15:21:18.160Z,0.42
2018-08-20T15:23:46.897Z,0.65
2018-08-20T15:26:15.445Z,0.60
2018-08-20T15:28:44.340Z,0.55
2018-08-20T15:31:16.022Z,0.53
2018-08-20T15:33:44.383Z,0.40
2018-08-20T15:36:13.234Z,3.05
2018-08-20T15:38:42.134Z,0.82
2018-08-20T15:41:10.781Z,0.35
2018-08-20T15:43:40.101Z,0.62
2018-08-20T15:46:09.796Z,0.80
2018-08-20T15:48:38.604Z,0.60
2018-08-20T15:51:08.050Z,1.90
2018-08-20T15:53:37.199Z,1.17
2018-08-20T15:56:07.028Z,0.72
2018-08-20T15:58:35.401Z,1.05
2018-08-20T16:01:07.168Z,1.25
2018-08-20T16:03:35.864Z,0.55
2018-08-20T16:06:04.574Z,0.75
2018-08-20T16:08:33.276Z,0.40
2018-08-20T16:11:02.217Z,0.62
2018-08-20T16:13:31.322Z,1.65
2018-08-20T16:16:00.487Z,0.72
2018-08-20T16:18:29.790Z,1.62
2018-08-20T16:20:59.101Z,0.62
2018-08-20T16:23:27.565Z,0.85
2018-08-20T16:25:57.103Z,1.47
2018-08-20T16:28:26.856Z,0.75
2018-08-20T16:30:56.022Z,0.60
2018-08-20T16:33:25.198Z,0.98
2018-08-20T16:35:56.799Z,0.90
2018-08-20T16:38:25.542Z,0.47
2018-08-20T16:40:54.216Z,0.70
2018-08-20T16:43:22.910Z,0.50
2018-08-20T16:45:51.563Z,0.90
2018-08-20T16:48:20.190Z,0.65
2018-08-20T16:50:49.027Z,0.70
2018-08-20T16:53:20.750Z,0.70
2018-08-20T16:55:50.741Z,0.82
2018-08-20T16:58:19.162Z,2.80
2018-08-20T17:00:47.784Z,0.82
2018-08-20T17:03:17.480Z,2.72
2018-08-20T17:05:48.642Z,1.82
2018-08-20T17:08:23.322Z,1.85
2018-08-20T17:10:52.696Z,0.85
2018-08-20T17:13:22.247Z,1.37
2018-08-20T17:15:51.957Z,0.90
2018-08-20T17:18:20.600Z,1.15
2018-08-20T17:20:49.165Z,1.67
2018-08-20T17:23:21.462Z,1.00
2018-08-20T17:25:49.920Z,1.42
2018-08-20T17:28:21.626Z,1.37
2018-08-20T17:30:57.735Z,1.40
2018-08-20T17:33:33.961Z,1.57
2018-08-20T17:36:03.054Z,1.30
2018-08-20T17:38:31.801Z,1.50
2018-08-20T17:41:00.827Z,1.25
2018-08-20T17:43:34.734Z,1.15
2018-08-20T17:46:04.466Z,1.87
2018-08-20T17:48:34.125Z,1.20
2018-08-20T17:51:03.241Z,1.10
2018-08-20T17:53:43.455Z,0.90
2018-08-20T17:56:14.659Z,1.20
2018-08-20T17:58:44.447Z,1.15
2018-08-20T18:01:13.983Z,1.00
2018-08-20T18:03:43.660Z,1.15
2018-08-20T18:06:12.337Z,1.45
2018-08-20T18:08:41.190Z,0.80
2018-08-20T18:11:10.910Z,1.00
2018-08-20T18:13:45.221Z,0.80
2018-08-20T18:16:15.649Z,1.00
2018-08-20T18:18:46.821Z,1.10
2018-08-20T18:21:15.305Z,1.07
2018-08-20T18:23:43.969Z,1.00
2018-08-20T18:26:13.410Z,0.95
2018-08-20T18:28:51.500Z,1.00
2018-08-20T18:31:25.267Z,1.27
2018-08-20T18:33:55.725Z,1.05
2018-08-20T18:36:26.157Z,1.67
2018-08-20T18:38:59.122Z,1.20
2018-08-20T18:41:51.078Z,1.12
2018-08-20T18:44:20.004Z,1.40
2018-08-20T18:46:49.729Z,1.17
2018-08-20T18:49:18.993Z,1.10
2018-08-20T18:51:54.323Z,1.20
2018-08-20T18:54:23.097Z,1.00
2018-08-20T18:57:02.649Z,1.45
2018-08-20T18:59:36.985Z,1.50
2018-08-20T19:02:07.606Z,1.37
2018-08-20T19:04:41.304Z,1.17
2018-08-20T19:07:11.605Z,1.25
2018-08-20T19:09:49.986Z,1.70
2018-08-20T19:12:19.271Z,1.52
2018-08-20T19:14:47.913Z,1.47
2018-08-20T19:17:24.700Z,1.37
2018-08-20T19:20:00.664Z,1.80
2018-08-20T19:22:30.885Z,1.70
2018-08-20T19:25:00.011Z,2.10
2018-08-20T19:27:42.534Z,1.05
2018-08-20T19:30:20.886Z,1.50
2018-08-20T19:33:01.295Z,1.40
2018-08-20T19:35:29.672Z,1.40
2018-08-20T19:38:03.725Z,1.82
2018-08-20T19:40:32.882Z,1.50
2018-08-20T19:43:13.639Z,1.57
2018-08-20T19:45:44.235Z,2.00
2018-08-20T19:48:19.886Z,1.70
2018-08-20T19:50:48.953Z,1.60
2018-08-20T19:53:23.837Z,2.25
2018-08-20T19:55:54.000Z,1.50
2018-08-20T19:58:35.287Z,1.70
2018-08-20T20:01:10.257Z,1.87
2018-08-20T20:03:42.369Z,1.47
2018-08-20T20:06:18.984Z,1.98
2018-08-20T20:08:50.233Z,1.50
2018-08-20T20:11:24.281Z,1.32
2018-08-20T20:13:59.224Z,1.67
2018-08-20T20:16:37.325Z,2.98
2018-08-20T20:19:12.197Z,1.92
2018-08-20T20:21:59.686Z,1.85
2018-08-20T20:24:31.479Z,1.75
2018-08-20T20:27:00.434Z,2.05
2018-08-20T20:29:38.196Z,1.80
2018-08-20T20:32:12.731Z,2.02
2018-08-20T20:34:41.900Z,2.92
2018-08-20T20:37:10.738Z,3.02
2018-08-20T20:39:53.868Z,3.00
2018-08-20T20:42:29.156Z,2.67
2018-08-20T20:44:57.795Z,2.70
2018-08-20T20:47:27.018Z,2.33
2018-08-20T20:50:01.460Z,3.27
2018-08-20T20:52:30.668Z,4.40
2018-08-20T20:55:15.626Z,2.83
2018-08-20T20:57:50.474Z,3.37
2018-08-20T21:03:24.404Z,2.75
2018-08-20T21:05:52.918Z,2.45
2018-08-20T21:08:36.499Z,3.67
2018-08-20T21:11:05.371Z,3.37
2018-08-20T21:13:36.863Z,4.10
2018-08-20T21:16:07.129Z,3.67
2018-08-20T21:18:53.317Z,3.40
2018-08-20T21:21:29.922Z,3.60
2018-08-20T21:23:58.765Z,3.90
2018-08-20T21:26:30.855Z,3.25
2018-08-20T21:29:05.289Z,3.22
2018-08-20T21:31:51.072Z,3.15
2018-08-20T21:34:35.884Z,3.33
2018-08-20T21:37:11.138Z,3.10
2018-08-20T21:39:40.288Z,2.92
2018-08-20T21:42:12.430Z,4.08
2018-08-20T21:44:47.141Z,4.35
2018-08-20T21:47:23.960Z,4.42
2018-08-20T21:49:56.685Z,4.75
2018-08-20T21:52:36.708Z,4.65
2018-08-20T21:55:07.120Z,4.87
2018-08-20T21:57:39.748Z,5.17
2018-08-20T22:00:13.769Z,6.03
2018-08-20T22:03:01.709Z,6.03
2018-08-20T22:05:38.990Z,6.15
2018-08-20T22:08:11.111Z,5.97
2018-08-20T22:10:39.744Z,6.00
2018-08-20T22:13:09.809Z,5.22
2018-08-20T22:15:41.145Z,5.95
2018-08-20T22:18:09.929Z,5.00
2018-08-20T22:20:39.757Z,5.65
2018-08-20T22:23:24.949Z,5.30
2018-08-20T22:25:40.802Z,5.90
2018-08-20T22:28:10.698Z,6.08
2018-08-20T22:30:54.377Z,6.17
2018-08-20T22:33:37.169Z,5.83
2018-08-20T22:51:52.483Z,7.22
2018-08-20T22:54:28.463Z,7.17
2018-08-20T22:57:09.672Z,6.45
2018-08-20T22:59:44.031Z,6.90
2018-08-20T23:02:28.505Z,7.92
2018-08-20T23:05:14.932Z,7.03
2018-08-20T23:07:49.010Z,7.00
2018-08-20T23:10:29.478Z,6.42
2018-08-20T23:13:00.857Z,6.92
2018-08-20T23:15:34.971Z,6.55
2018-08-20T23:18:04.578Z,7.30
2018-08-20T23:20:39.471Z,7.17
2018-08-20T23:23:08.664Z,6.92
2018-08-20T23:25:46.712Z,7.12
2018-08-20T23:28:16.680Z,7.17
2018-08-20T23:30:53.007Z,6.65
2018-08-20T23:33:27.930Z,6.87
2018-08-20T23:35:57.892Z,7.78
2018-08-20T23:38:32.143Z,7.85
2018-08-20T23:41:00.637Z,7.12
2018-08-20T23:43:29.593Z,7.30
2018-08-20T23:45:59.021Z,7.50
2018-08-20T23:48:35.104Z,6.85
2018-08-20T23:51:06.262Z,6.92
2018-08-20T23:53:47.572Z,7.17
2018-08-20T23:56:16.446Z,6.72
2018-08-20T23:58:44.989Z,7.15
